<?xml version="1.0" encoding="UTF-8" standalone="no" ?>
<gpx xmlns="http://www.topografix.com/GPX/1/1" xmlns:xsi="http://www.w3.org/2001/XMLSchema-instance" xsi:schemaLocation="http://www.topografix.com/GPX/1/1 http://www.topografix.com/GPX/1/1/gpx.xsd" version="1.1" creator="VisuGPX - https://www.visugpx.com">
  <metadata>
    <name>skirando rochethomas</name>
    <desc><![CDATA[ski. vers la roche thomas, par le NE vu le vent de la nuit (pour voir, et pour être à l'abri du vent).beaucoup moins de monde que la veille. Belle remontée vers le col, sur neige bizarre (30/50cm de poudre, en dessous neige humide).Descente très bonne, croupes ensuite jusqu'à la forêt ou on s'amuse, puis bartassage en foret avant retour station ski du granier cracra. avec les amis.]]></desc>
  </metadata>
  <trk>
    <name><![CDATA[2016-02-07 07:58]]></name>
    <trkseg>
      <trkpt lat="45.57812" lon="6.65228">
        <ele>1412.47</ele>
        <time>2016-02-07T06:58:31.000Z</time>
      </trkpt>
      <trkpt lat="45.57829" lon="6.65213">
        <ele>1403.49</ele>
        <time>2016-02-07T07:01:37.000Z</time>
      </trkpt>
      <trkpt lat="45.57846" lon="6.65217">
        <ele>1403</ele>
        <time>2016-02-07T07:02:01.000Z</time>
      </trkpt>
      <trkpt lat="45.57846" lon="6.65217">
        <ele>1403</ele>
        <time>2016-02-07T07:02:01.000Z</time>
      </trkpt>
      <trkpt lat="45.57842" lon="6.65206">
        <ele>1408.47</ele>
        <time>2016-02-07T07:02:31.000Z</time>
      </trkpt>
      <trkpt lat="45.57824" lon="6.65198">
        <ele>1408.29</ele>
        <time>2016-02-07T07:03:41.000Z</time>
      </trkpt>
      <trkpt lat="45.57824" lon="6.65198">
        <ele>1408.29</ele>
        <time>2016-02-07T07:03:41.000Z</time>
      </trkpt>
      <trkpt lat="45.57817" lon="6.65188">
        <ele>1404.41</ele>
        <time>2016-02-07T07:06:31.000Z</time>
      </trkpt>
      <trkpt lat="45.57806" lon="6.65165">
        <ele>1403.19</ele>
        <time>2016-02-07T07:06:57.000Z</time>
      </trkpt>
      <trkpt lat="45.57806" lon="6.65165">
        <ele>1403.19</ele>
        <time>2016-02-07T07:06:57.000Z</time>
      </trkpt>
      <trkpt lat="45.57803" lon="6.6516">
        <ele>1410</ele>
        <time>2016-02-07T07:10:31.000Z</time>
      </trkpt>
      <trkpt lat="45.57793" lon="6.65138">
        <ele>1414.5</ele>
        <time>2016-02-07T07:13:41.000Z</time>
      </trkpt>
      <trkpt lat="45.57789" lon="6.65112">
        <ele>1420.31</ele>
        <time>2016-02-07T07:14:03.000Z</time>
      </trkpt>
      <trkpt lat="45.57805" lon="6.65099">
        <ele>1426.71</ele>
        <time>2016-02-07T07:14:27.000Z</time>
      </trkpt>
      <trkpt lat="45.57805" lon="6.65099">
        <ele>1426.71</ele>
        <time>2016-02-07T07:14:27.000Z</time>
      </trkpt>
      <trkpt lat="45.57808" lon="6.65098">
        <ele>1428.18</ele>
        <time>2016-02-07T07:14:31.000Z</time>
      </trkpt>
      <trkpt lat="45.57827" lon="6.65095">
        <ele>1430.43</ele>
        <time>2016-02-07T07:14:57.000Z</time>
      </trkpt>
      <trkpt lat="45.57822" lon="6.65068">
        <ele>1436.47</ele>
        <time>2016-02-07T07:15:29.000Z</time>
      </trkpt>
      <trkpt lat="45.57814" lon="6.65043">
        <ele>1440.74</ele>
        <time>2016-02-07T07:15:57.000Z</time>
      </trkpt>
      <trkpt lat="45.57829" lon="6.65028">
        <ele>1446.98</ele>
        <time>2016-02-07T07:16:35.000Z</time>
      </trkpt>
      <trkpt lat="45.57846" lon="6.65018">
        <ele>1454.67</ele>
        <time>2016-02-07T07:17:03.000Z</time>
      </trkpt>
      <trkpt lat="45.57864" lon="6.65012">
        <ele>1457.58</ele>
        <time>2016-02-07T07:17:35.000Z</time>
      </trkpt>
      <trkpt lat="45.57881" lon="6.65003">
        <ele>1462.95</ele>
        <time>2016-02-07T07:18:07.000Z</time>
      </trkpt>
      <trkpt lat="45.57881" lon="6.65003">
        <ele>1462.95</ele>
        <time>2016-02-07T07:18:07.000Z</time>
      </trkpt>
      <trkpt lat="45.57895" lon="6.65">
        <ele>1469.19</ele>
        <time>2016-02-07T07:18:31.000Z</time>
      </trkpt>
      <trkpt lat="45.57913" lon="6.65">
        <ele>1473.97</ele>
        <time>2016-02-07T07:19:05.000Z</time>
      </trkpt>
      <trkpt lat="45.57915" lon="6.64974">
        <ele>1481.69</ele>
        <time>2016-02-07T07:19:43.000Z</time>
      </trkpt>
      <trkpt lat="45.57909" lon="6.64949">
        <ele>1487.39</ele>
        <time>2016-02-07T07:20:19.000Z</time>
      </trkpt>
      <trkpt lat="45.579" lon="6.64925">
        <ele>1493.2</ele>
        <time>2016-02-07T07:20:55.000Z</time>
      </trkpt>
      <trkpt lat="45.57911" lon="6.64905">
        <ele>1496.41</ele>
        <time>2016-02-07T07:21:39.000Z</time>
      </trkpt>
      <trkpt lat="45.5793" lon="6.64901">
        <ele>1502.37</ele>
        <time>2016-02-07T07:22:11.000Z</time>
      </trkpt>
      <trkpt lat="45.5793" lon="6.64901">
        <ele>1502.37</ele>
        <time>2016-02-07T07:22:11.000Z</time>
      </trkpt>
      <trkpt lat="45.5794" lon="6.64897">
        <ele>1504.7</ele>
        <time>2016-02-07T07:22:31.000Z</time>
      </trkpt>
      <trkpt lat="45.57956" lon="6.64882">
        <ele>1509.64</ele>
        <time>2016-02-07T07:23:03.000Z</time>
      </trkpt>
      <trkpt lat="45.57974" lon="6.64873">
        <ele>1517.44</ele>
        <time>2016-02-07T07:23:43.000Z</time>
      </trkpt>
      <trkpt lat="45.57992" lon="6.64868">
        <ele>1526.67</ele>
        <time>2016-02-07T07:24:21.000Z</time>
      </trkpt>
      <trkpt lat="45.57984" lon="6.64843">
        <ele>1532.88</ele>
        <time>2016-02-07T07:25:03.000Z</time>
      </trkpt>
      <trkpt lat="45.57977" lon="6.64819">
        <ele>1536.31</ele>
        <time>2016-02-07T07:25:35.000Z</time>
      </trkpt>
      <trkpt lat="45.57977" lon="6.64791">
        <ele>1540.48</ele>
        <time>2016-02-07T07:26:03.000Z</time>
      </trkpt>
      <trkpt lat="45.57977" lon="6.64791">
        <ele>1540.48</ele>
        <time>2016-02-07T07:26:03.000Z</time>
      </trkpt>
      <trkpt lat="45.57977" lon="6.64767">
        <ele>1545.42</ele>
        <time>2016-02-07T07:26:31.000Z</time>
      </trkpt>
      <trkpt lat="45.57975" lon="6.6474">
        <ele>1551.11</ele>
        <time>2016-02-07T07:26:59.000Z</time>
      </trkpt>
      <trkpt lat="45.57994" lon="6.64741">
        <ele>1548.25</ele>
        <time>2016-02-07T07:29:03.000Z</time>
      </trkpt>
      <trkpt lat="45.58012" lon="6.64752">
        <ele>1552.38</ele>
        <time>2016-02-07T07:29:43.000Z</time>
      </trkpt>
      <trkpt lat="45.58012" lon="6.64752">
        <ele>1552.38</ele>
        <time>2016-02-07T07:29:43.000Z</time>
      </trkpt>
      <trkpt lat="45.58018" lon="6.6476">
        <ele>1556.85</ele>
        <time>2016-02-07T07:30:31.000Z</time>
      </trkpt>
      <trkpt lat="45.58037" lon="6.64761">
        <ele>1561.09</ele>
        <time>2016-02-07T07:34:13.000Z</time>
      </trkpt>
      <trkpt lat="45.58037" lon="6.64761">
        <ele>1561.09</ele>
        <time>2016-02-07T07:34:13.000Z</time>
      </trkpt>
      <trkpt lat="45.58049" lon="6.64756">
        <ele>1565.07</ele>
        <time>2016-02-07T07:34:31.000Z</time>
      </trkpt>
      <trkpt lat="45.58054" lon="6.64729">
        <ele>1572.79</ele>
        <time>2016-02-07T07:35:01.000Z</time>
      </trkpt>
      <trkpt lat="45.5807" lon="6.64716">
        <ele>1577.35</ele>
        <time>2016-02-07T07:35:29.000Z</time>
      </trkpt>
      <trkpt lat="45.58088" lon="6.64716">
        <ele>1585.41</ele>
        <time>2016-02-07T07:36:17.000Z</time>
      </trkpt>
      <trkpt lat="45.58106" lon="6.64724">
        <ele>1589.04</ele>
        <time>2016-02-07T07:36:59.000Z</time>
      </trkpt>
      <trkpt lat="45.58115" lon="6.647">
        <ele>1603.78</ele>
        <time>2016-02-07T07:37:33.000Z</time>
      </trkpt>
      <trkpt lat="45.58134" lon="6.64696">
        <ele>1609.4</ele>
        <time>2016-02-07T07:38:15.000Z</time>
      </trkpt>
      <trkpt lat="45.58134" lon="6.64696">
        <ele>1609.4</ele>
        <time>2016-02-07T07:38:15.000Z</time>
      </trkpt>
      <trkpt lat="45.58149" lon="6.64706">
        <ele>1612.8</ele>
        <time>2016-02-07T07:38:31.000Z</time>
      </trkpt>
      <trkpt lat="45.58164" lon="6.64691">
        <ele>1622.01</ele>
        <time>2016-02-07T07:39:27.000Z</time>
      </trkpt>
      <trkpt lat="45.58183" lon="6.64686">
        <ele>1626.58</ele>
        <time>2016-02-07T07:40:21.000Z</time>
      </trkpt>
      <trkpt lat="45.58199" lon="6.64673">
        <ele>1629.94</ele>
        <time>2016-02-07T07:40:55.000Z</time>
      </trkpt>
      <trkpt lat="45.58203" lon="6.64647">
        <ele>1642.64</ele>
        <time>2016-02-07T07:41:27.000Z</time>
      </trkpt>
      <trkpt lat="45.58221" lon="6.64642">
        <ele>1646.11</ele>
        <time>2016-02-07T07:42:19.000Z</time>
      </trkpt>
      <trkpt lat="45.58221" lon="6.64642">
        <ele>1646.11</ele>
        <time>2016-02-07T07:42:19.000Z</time>
      </trkpt>
      <trkpt lat="45.58225" lon="6.64641">
        <ele>1649.3</ele>
        <time>2016-02-07T07:42:31.000Z</time>
      </trkpt>
      <trkpt lat="45.58242" lon="6.64652">
        <ele>1655.1</ele>
        <time>2016-02-07T07:42:59.000Z</time>
      </trkpt>
      <trkpt lat="45.58261" lon="6.64649">
        <ele>1663.24</ele>
        <time>2016-02-07T07:43:45.000Z</time>
      </trkpt>
      <trkpt lat="45.58278" lon="6.64637">
        <ele>1676.18</ele>
        <time>2016-02-07T07:44:25.000Z</time>
      </trkpt>
      <trkpt lat="45.58296" lon="6.64636">
        <ele>1678.86</ele>
        <time>2016-02-07T07:45:07.000Z</time>
      </trkpt>
      <trkpt lat="45.58296" lon="6.64636">
        <ele>1678.86</ele>
        <time>2016-02-07T07:45:07.000Z</time>
      </trkpt>
      <trkpt lat="45.58313" lon="6.64634">
        <ele>1681</ele>
        <time>2016-02-07T07:46:31.000Z</time>
      </trkpt>
      <trkpt lat="45.58313" lon="6.64634">
        <ele>1681</ele>
        <time>2016-02-07T07:46:31.000Z</time>
      </trkpt>
      <trkpt lat="45.58315" lon="6.64632">
        <ele>1680</ele>
        <time>2016-02-07T07:50:31.000Z</time>
      </trkpt>
      <trkpt lat="45.58334" lon="6.64628">
        <ele>1682.11</ele>
        <time>2016-02-07T07:53:41.000Z</time>
      </trkpt>
      <trkpt lat="45.58353" lon="6.64619">
        <ele>1686.73</ele>
        <time>2016-02-07T07:54:23.000Z</time>
      </trkpt>
      <trkpt lat="45.58353" lon="6.64619">
        <ele>1686.73</ele>
        <time>2016-02-07T07:54:23.000Z</time>
      </trkpt>
      <trkpt lat="45.58359" lon="6.64617">
        <ele>1687.11</ele>
        <time>2016-02-07T07:54:31.000Z</time>
      </trkpt>
      <trkpt lat="45.58377" lon="6.64613">
        <ele>1693.14</ele>
        <time>2016-02-07T07:54:59.000Z</time>
      </trkpt>
      <trkpt lat="45.58395" lon="6.64606">
        <ele>1698.71</ele>
        <time>2016-02-07T07:55:21.000Z</time>
      </trkpt>
      <trkpt lat="45.58407" lon="6.64587">
        <ele>1706.59</ele>
        <time>2016-02-07T07:56:03.000Z</time>
      </trkpt>
      <trkpt lat="45.58425" lon="6.6458">
        <ele>1710.5</ele>
        <time>2016-02-07T07:56:53.000Z</time>
      </trkpt>
      <trkpt lat="45.58446" lon="6.64577">
        <ele>1712.66</ele>
        <time>2016-02-07T07:57:19.000Z</time>
      </trkpt>
      <trkpt lat="45.58464" lon="6.64566">
        <ele>1724</ele>
        <time>2016-02-07T07:57:51.000Z</time>
      </trkpt>
      <trkpt lat="45.58482" lon="6.64555">
        <ele>1727.95</ele>
        <time>2016-02-07T07:58:23.000Z</time>
      </trkpt>
      <trkpt lat="45.58482" lon="6.64555">
        <ele>1727.95</ele>
        <time>2016-02-07T07:58:23.000Z</time>
      </trkpt>
      <trkpt lat="45.58487" lon="6.64553">
        <ele>1726.75</ele>
        <time>2016-02-07T07:58:31.000Z</time>
      </trkpt>
      <trkpt lat="45.585" lon="6.64534">
        <ele>1729.46</ele>
        <time>2016-02-07T07:59:01.000Z</time>
      </trkpt>
      <trkpt lat="45.58513" lon="6.64515">
        <ele>1734.19</ele>
        <time>2016-02-07T07:59:35.000Z</time>
      </trkpt>
      <trkpt lat="45.58524" lon="6.64495">
        <ele>1740.83</ele>
        <time>2016-02-07T08:00:09.000Z</time>
      </trkpt>
      <trkpt lat="45.58509" lon="6.64479">
        <ele>1747.47</ele>
        <time>2016-02-07T08:00:51.000Z</time>
      </trkpt>
      <trkpt lat="45.58525" lon="6.64464">
        <ele>1754.52</ele>
        <time>2016-02-07T08:01:49.000Z</time>
      </trkpt>
      <trkpt lat="45.58543" lon="6.64462">
        <ele>1755.32</ele>
        <time>2016-02-07T08:02:07.000Z</time>
      </trkpt>
      <trkpt lat="45.58561" lon="6.64456">
        <ele>1753.36</ele>
        <time>2016-02-07T08:02:27.000Z</time>
      </trkpt>
      <trkpt lat="45.58561" lon="6.64456">
        <ele>1753.36</ele>
        <time>2016-02-07T08:02:27.000Z</time>
      </trkpt>
      <trkpt lat="45.58564" lon="6.64455">
        <ele>1754.34</ele>
        <time>2016-02-07T08:02:31.000Z</time>
      </trkpt>
      <trkpt lat="45.58582" lon="6.64447">
        <ele>1750.96</ele>
        <time>2016-02-07T08:02:47.000Z</time>
      </trkpt>
      <trkpt lat="45.58601" lon="6.6444">
        <ele>1752.89</ele>
        <time>2016-02-07T08:03:01.000Z</time>
      </trkpt>
      <trkpt lat="45.5862" lon="6.64433">
        <ele>1747.32</ele>
        <time>2016-02-07T08:03:21.000Z</time>
      </trkpt>
      <trkpt lat="45.5862" lon="6.64433">
        <ele>1747.32</ele>
        <time>2016-02-07T08:03:21.000Z</time>
      </trkpt>
      <trkpt lat="45.58633" lon="6.64424">
        <ele>1747</ele>
        <time>2016-02-07T08:06:31.000Z</time>
      </trkpt>
      <trkpt lat="45.58648" lon="6.64409">
        <ele>1747.14</ele>
        <time>2016-02-07T08:07:11.000Z</time>
      </trkpt>
      <trkpt lat="45.58667" lon="6.64401">
        <ele>1748</ele>
        <time>2016-02-07T08:07:45.000Z</time>
      </trkpt>
      <trkpt lat="45.58685" lon="6.6439">
        <ele>1745.72</ele>
        <time>2016-02-07T08:07:59.000Z</time>
      </trkpt>
      <trkpt lat="45.58702" lon="6.64376">
        <ele>1745.62</ele>
        <time>2016-02-07T08:08:17.000Z</time>
      </trkpt>
      <trkpt lat="45.5872" lon="6.64369">
        <ele>1755.29</ele>
        <time>2016-02-07T08:08:39.000Z</time>
      </trkpt>
      <trkpt lat="45.58739" lon="6.64363">
        <ele>1753.14</ele>
        <time>2016-02-07T08:09:03.000Z</time>
      </trkpt>
      <trkpt lat="45.58757" lon="6.64359">
        <ele>1758.41</ele>
        <time>2016-02-07T08:09:25.000Z</time>
      </trkpt>
      <trkpt lat="45.58775" lon="6.64348">
        <ele>1761.17</ele>
        <time>2016-02-07T08:09:45.000Z</time>
      </trkpt>
      <trkpt lat="45.58794" lon="6.64341">
        <ele>1761.28</ele>
        <time>2016-02-07T08:10:07.000Z</time>
      </trkpt>
      <trkpt lat="45.58813" lon="6.64342">
        <ele>1765.02</ele>
        <time>2016-02-07T08:10:27.000Z</time>
      </trkpt>
      <trkpt lat="45.58813" lon="6.64342">
        <ele>1765.02</ele>
        <time>2016-02-07T08:10:27.000Z</time>
      </trkpt>
      <trkpt lat="45.58817" lon="6.64343">
        <ele>1763.75</ele>
        <time>2016-02-07T08:10:31.000Z</time>
      </trkpt>
      <trkpt lat="45.58835" lon="6.64342">
        <ele>1771.47</ele>
        <time>2016-02-07T08:10:55.000Z</time>
      </trkpt>
      <trkpt lat="45.58854" lon="6.64345">
        <ele>1770.49</ele>
        <time>2016-02-07T08:11:27.000Z</time>
      </trkpt>
      <trkpt lat="45.58874" lon="6.64335">
        <ele>1768.89</ele>
        <time>2016-02-07T08:11:41.000Z</time>
      </trkpt>
      <trkpt lat="45.58892" lon="6.6433">
        <ele>1775.92</ele>
        <time>2016-02-07T08:11:57.000Z</time>
      </trkpt>
      <trkpt lat="45.58906" lon="6.64313">
        <ele>1778.86</ele>
        <time>2016-02-07T08:12:25.000Z</time>
      </trkpt>
      <trkpt lat="45.58917" lon="6.64292">
        <ele>1787.2</ele>
        <time>2016-02-07T08:12:55.000Z</time>
      </trkpt>
      <trkpt lat="45.58926" lon="6.64266">
        <ele>1789.76</ele>
        <time>2016-02-07T08:13:23.000Z</time>
      </trkpt>
      <trkpt lat="45.58931" lon="6.64241">
        <ele>1793.57</ele>
        <time>2016-02-07T08:13:55.000Z</time>
      </trkpt>
      <trkpt lat="45.58938" lon="6.64217">
        <ele>1794.11</ele>
        <time>2016-02-07T08:14:27.000Z</time>
      </trkpt>
      <trkpt lat="45.58938" lon="6.64217">
        <ele>1794.11</ele>
        <time>2016-02-07T08:14:27.000Z</time>
      </trkpt>
      <trkpt lat="45.58939" lon="6.64212">
        <ele>1795.28</ele>
        <time>2016-02-07T08:14:31.000Z</time>
      </trkpt>
      <trkpt lat="45.58938" lon="6.64185">
        <ele>1800.81</ele>
        <time>2016-02-07T08:14:59.000Z</time>
      </trkpt>
      <trkpt lat="45.58933" lon="6.64159">
        <ele>1805.73</ele>
        <time>2016-02-07T08:15:23.000Z</time>
      </trkpt>
      <trkpt lat="45.58928" lon="6.64133">
        <ele>1810.13</ele>
        <time>2016-02-07T08:15:53.000Z</time>
      </trkpt>
      <trkpt lat="45.58925" lon="6.64107">
        <ele>1812.38</ele>
        <time>2016-02-07T08:16:21.000Z</time>
      </trkpt>
      <trkpt lat="45.58918" lon="6.64081">
        <ele>1818.98</ele>
        <time>2016-02-07T08:16:51.000Z</time>
      </trkpt>
      <trkpt lat="45.58909" lon="6.64059">
        <ele>1824.86</ele>
        <time>2016-02-07T08:17:53.000Z</time>
      </trkpt>
      <trkpt lat="45.58902" lon="6.64034">
        <ele>1831.52</ele>
        <time>2016-02-07T08:18:25.000Z</time>
      </trkpt>
      <trkpt lat="45.58902" lon="6.64034">
        <ele>1831.52</ele>
        <time>2016-02-07T08:18:25.000Z</time>
      </trkpt>
      <trkpt lat="45.589" lon="6.64028">
        <ele>1831.94</ele>
        <time>2016-02-07T08:18:31.000Z</time>
      </trkpt>
      <trkpt lat="45.58895" lon="6.64002">
        <ele>1834.52</ele>
        <time>2016-02-07T08:19:03.000Z</time>
      </trkpt>
      <trkpt lat="45.5889" lon="6.63977">
        <ele>1840.59</ele>
        <time>2016-02-07T08:19:35.000Z</time>
      </trkpt>
      <trkpt lat="45.58884" lon="6.63952">
        <ele>1842.94</ele>
        <time>2016-02-07T08:20:05.000Z</time>
      </trkpt>
      <trkpt lat="45.58881" lon="6.63927">
        <ele>1842.51</ele>
        <time>2016-02-07T08:21:33.000Z</time>
      </trkpt>
      <trkpt lat="45.58881" lon="6.63901">
        <ele>1841.21</ele>
        <time>2016-02-07T08:21:57.000Z</time>
      </trkpt>
      <trkpt lat="45.58895" lon="6.63884">
        <ele>1842.11</ele>
        <time>2016-02-07T08:22:09.000Z</time>
      </trkpt>
      <trkpt lat="45.58895" lon="6.63884">
        <ele>1842.11</ele>
        <time>2016-02-07T08:22:09.000Z</time>
      </trkpt>
      <trkpt lat="45.58903" lon="6.6387">
        <ele>1841.81</ele>
        <time>2016-02-07T08:22:31.000Z</time>
      </trkpt>
      <trkpt lat="45.58916" lon="6.63851">
        <ele>1853.25</ele>
        <time>2016-02-07T08:24:23.000Z</time>
      </trkpt>
      <trkpt lat="45.58916" lon="6.63851">
        <ele>1853.25</ele>
        <time>2016-02-07T08:24:23.000Z</time>
      </trkpt>
      <trkpt lat="45.58924" lon="6.63852">
        <ele>1854</ele>
        <time>2016-02-07T08:26:31.000Z</time>
      </trkpt>
      <trkpt lat="45.58939" lon="6.63838">
        <ele>1858.15</ele>
        <time>2016-02-07T08:27:59.000Z</time>
      </trkpt>
      <trkpt lat="45.58947" lon="6.63814">
        <ele>1861.63</ele>
        <time>2016-02-07T08:28:29.000Z</time>
      </trkpt>
      <trkpt lat="45.58952" lon="6.63788">
        <ele>1863</ele>
        <time>2016-02-07T08:28:55.000Z</time>
      </trkpt>
      <trkpt lat="45.58966" lon="6.6377">
        <ele>1868.17</ele>
        <time>2016-02-07T08:29:19.000Z</time>
      </trkpt>
      <trkpt lat="45.58981" lon="6.63754">
        <ele>1871.3</ele>
        <time>2016-02-07T08:29:43.000Z</time>
      </trkpt>
      <trkpt lat="45.58997" lon="6.6374">
        <ele>1873.73</ele>
        <time>2016-02-07T08:30:13.000Z</time>
      </trkpt>
      <trkpt lat="45.58997" lon="6.6374">
        <ele>1873.73</ele>
        <time>2016-02-07T08:30:13.000Z</time>
      </trkpt>
      <trkpt lat="45.59002" lon="6.63725">
        <ele>1873.04</ele>
        <time>2016-02-07T08:30:31.000Z</time>
      </trkpt>
      <trkpt lat="45.59011" lon="6.63701">
        <ele>1874.79</ele>
        <time>2016-02-07T08:30:59.000Z</time>
      </trkpt>
      <trkpt lat="45.59016" lon="6.63675">
        <ele>1868.08</ele>
        <time>2016-02-07T08:31:29.000Z</time>
      </trkpt>
      <trkpt lat="45.59018" lon="6.63649">
        <ele>1864.5</ele>
        <time>2016-02-07T08:31:51.000Z</time>
      </trkpt>
      <trkpt lat="45.59013" lon="6.63624">
        <ele>1860.46</ele>
        <time>2016-02-07T08:32:19.000Z</time>
      </trkpt>
      <trkpt lat="45.59011" lon="6.63597">
        <ele>1864.66</ele>
        <time>2016-02-07T08:32:45.000Z</time>
      </trkpt>
      <trkpt lat="45.5901" lon="6.63571">
        <ele>1864.87</ele>
        <time>2016-02-07T08:33:09.000Z</time>
      </trkpt>
      <trkpt lat="45.59011" lon="6.63544">
        <ele>1863.56</ele>
        <time>2016-02-07T08:33:33.000Z</time>
      </trkpt>
      <trkpt lat="45.59012" lon="6.63518">
        <ele>1864.01</ele>
        <time>2016-02-07T08:33:57.000Z</time>
      </trkpt>
      <trkpt lat="45.59013" lon="6.63491">
        <ele>1862.52</ele>
        <time>2016-02-07T08:34:25.000Z</time>
      </trkpt>
      <trkpt lat="45.59013" lon="6.63491">
        <ele>1862.52</ele>
        <time>2016-02-07T08:34:25.000Z</time>
      </trkpt>
      <trkpt lat="45.59013" lon="6.63486">
        <ele>1862.82</ele>
        <time>2016-02-07T08:34:31.000Z</time>
      </trkpt>
      <trkpt lat="45.59013" lon="6.6346">
        <ele>1873.21</ele>
        <time>2016-02-07T08:34:59.000Z</time>
      </trkpt>
      <trkpt lat="45.59015" lon="6.63434">
        <ele>1880.52</ele>
        <time>2016-02-07T08:35:27.000Z</time>
      </trkpt>
      <trkpt lat="45.59017" lon="6.63408">
        <ele>1888</ele>
        <time>2016-02-07T08:35:59.000Z</time>
      </trkpt>
      <trkpt lat="45.59019" lon="6.6338">
        <ele>1890.9</ele>
        <time>2016-02-07T08:36:31.000Z</time>
      </trkpt>
      <trkpt lat="45.59026" lon="6.63356">
        <ele>1901.43</ele>
        <time>2016-02-07T08:36:49.000Z</time>
      </trkpt>
      <trkpt lat="45.59042" lon="6.63342">
        <ele>1913.97</ele>
        <time>2016-02-07T08:37:19.000Z</time>
      </trkpt>
      <trkpt lat="45.59048" lon="6.63316">
        <ele>1921.51</ele>
        <time>2016-02-07T08:37:51.000Z</time>
      </trkpt>
      <trkpt lat="45.59048" lon="6.63316">
        <ele>1921.51</ele>
        <time>2016-02-07T08:37:51.000Z</time>
      </trkpt>
      <trkpt lat="45.59047" lon="6.63294">
        <ele>1925.24</ele>
        <time>2016-02-07T08:38:31.000Z</time>
      </trkpt>
      <trkpt lat="45.5905" lon="6.63268">
        <ele>1931.27</ele>
        <time>2016-02-07T08:39:07.000Z</time>
      </trkpt>
      <trkpt lat="45.59052" lon="6.63242">
        <ele>1932.77</ele>
        <time>2016-02-07T08:39:37.000Z</time>
      </trkpt>
      <trkpt lat="45.59054" lon="6.63214">
        <ele>1941.84</ele>
        <time>2016-02-07T08:40:09.000Z</time>
      </trkpt>
      <trkpt lat="45.59057" lon="6.63188">
        <ele>1951.85</ele>
        <time>2016-02-07T08:40:43.000Z</time>
      </trkpt>
      <trkpt lat="45.5906" lon="6.63163">
        <ele>1956.89</ele>
        <time>2016-02-07T08:41:17.000Z</time>
      </trkpt>
      <trkpt lat="45.59065" lon="6.63137">
        <ele>1962.21</ele>
        <time>2016-02-07T08:42:17.000Z</time>
      </trkpt>
      <trkpt lat="45.59065" lon="6.63137">
        <ele>1962.21</ele>
        <time>2016-02-07T08:42:17.000Z</time>
      </trkpt>
      <trkpt lat="45.59063" lon="6.6313">
        <ele>1966.27</ele>
        <time>2016-02-07T08:42:31.000Z</time>
      </trkpt>
      <trkpt lat="45.59063" lon="6.63104">
        <ele>1973.55</ele>
        <time>2016-02-07T08:43:05.000Z</time>
      </trkpt>
      <trkpt lat="45.59068" lon="6.63077">
        <ele>1979.7</ele>
        <time>2016-02-07T08:43:45.000Z</time>
      </trkpt>
      <trkpt lat="45.59075" lon="6.63053">
        <ele>1986.46</ele>
        <time>2016-02-07T08:44:11.000Z</time>
      </trkpt>
      <trkpt lat="45.59081" lon="6.63028">
        <ele>1999.06</ele>
        <time>2016-02-07T08:44:41.000Z</time>
      </trkpt>
      <trkpt lat="45.59079" lon="6.63001">
        <ele>1999.14</ele>
        <time>2016-02-07T08:45:15.000Z</time>
      </trkpt>
      <trkpt lat="45.59079" lon="6.62974">
        <ele>1998.38</ele>
        <time>2016-02-07T08:45:47.000Z</time>
      </trkpt>
      <trkpt lat="45.59077" lon="6.62948">
        <ele>1999.31</ele>
        <time>2016-02-07T08:46:19.000Z</time>
      </trkpt>
      <trkpt lat="45.59077" lon="6.62948">
        <ele>1999.31</ele>
        <time>2016-02-07T08:46:19.000Z</time>
      </trkpt>
      <trkpt lat="45.59074" lon="6.62939">
        <ele>1998.29</ele>
        <time>2016-02-07T08:46:31.000Z</time>
      </trkpt>
      <trkpt lat="45.59065" lon="6.62915">
        <ele>2001.56</ele>
        <time>2016-02-07T08:47:01.000Z</time>
      </trkpt>
      <trkpt lat="45.59057" lon="6.6289">
        <ele>2004.27</ele>
        <time>2016-02-07T08:47:27.000Z</time>
      </trkpt>
      <trkpt lat="45.59045" lon="6.62872">
        <ele>2006.98</ele>
        <time>2016-02-07T08:48:49.000Z</time>
      </trkpt>
      <trkpt lat="45.59026" lon="6.62867">
        <ele>2006.31</ele>
        <time>2016-02-07T08:49:15.000Z</time>
      </trkpt>
      <trkpt lat="45.59009" lon="6.62879">
        <ele>2012.79</ele>
        <time>2016-02-07T08:49:41.000Z</time>
      </trkpt>
      <trkpt lat="45.58993" lon="6.62894">
        <ele>2019.43</ele>
        <time>2016-02-07T08:50:11.000Z</time>
      </trkpt>
      <trkpt lat="45.58993" lon="6.62894">
        <ele>2019.43</ele>
        <time>2016-02-07T08:50:11.000Z</time>
      </trkpt>
      <trkpt lat="45.58982" lon="6.62894">
        <ele>2021.87</ele>
        <time>2016-02-07T08:50:31.000Z</time>
      </trkpt>
      <trkpt lat="45.58976" lon="6.6287">
        <ele>2026.79</ele>
        <time>2016-02-07T08:51:15.000Z</time>
      </trkpt>
      <trkpt lat="45.58973" lon="6.62844">
        <ele>2035.85</ele>
        <time>2016-02-07T08:52:07.000Z</time>
      </trkpt>
      <trkpt lat="45.58963" lon="6.62821">
        <ele>2040.56</ele>
        <time>2016-02-07T08:52:41.000Z</time>
      </trkpt>
      <trkpt lat="45.5895" lon="6.628">
        <ele>2043.92</ele>
        <time>2016-02-07T08:53:17.000Z</time>
      </trkpt>
      <trkpt lat="45.58938" lon="6.6278">
        <ele>2046.99</ele>
        <time>2016-02-07T08:53:51.000Z</time>
      </trkpt>
      <trkpt lat="45.58938" lon="6.6278">
        <ele>2046.99</ele>
        <time>2016-02-07T08:53:51.000Z</time>
      </trkpt>
      <trkpt lat="45.58932" lon="6.62763">
        <ele>2045.05</ele>
        <time>2016-02-07T08:54:31.000Z</time>
      </trkpt>
      <trkpt lat="45.58918" lon="6.62744">
        <ele>2059.72</ele>
        <time>2016-02-07T08:55:17.000Z</time>
      </trkpt>
      <trkpt lat="45.5891" lon="6.62722">
        <ele>2061.42</ele>
        <time>2016-02-07T08:57:37.000Z</time>
      </trkpt>
      <trkpt lat="45.5891" lon="6.62722">
        <ele>2061.42</ele>
        <time>2016-02-07T08:57:37.000Z</time>
      </trkpt>
      <trkpt lat="45.58907" lon="6.62721">
        <ele>2062.31</ele>
        <time>2016-02-07T08:58:31.000Z</time>
      </trkpt>
      <trkpt lat="45.58907" lon="6.62721">
        <ele>2062.31</ele>
        <time>2016-02-07T08:58:31.000Z</time>
      </trkpt>
      <trkpt lat="45.58908" lon="6.62721">
        <ele>2062</ele>
        <time>2016-02-07T09:02:31.000Z</time>
      </trkpt>
      <trkpt lat="45.58908" lon="6.62721">
        <ele>2062</ele>
        <time>2016-02-07T09:02:31.000Z</time>
      </trkpt>
      <trkpt lat="45.58908" lon="6.62719">
        <ele>2063</ele>
        <time>2016-02-07T09:06:31.000Z</time>
      </trkpt>
      <trkpt lat="45.589" lon="6.62696">
        <ele>2053.99</ele>
        <time>2016-02-07T09:08:43.000Z</time>
      </trkpt>
      <trkpt lat="45.58892" lon="6.62671">
        <ele>2051.87</ele>
        <time>2016-02-07T09:09:09.000Z</time>
      </trkpt>
      <trkpt lat="45.58879" lon="6.6265">
        <ele>2051.87</ele>
        <time>2016-02-07T09:09:51.000Z</time>
      </trkpt>
      <trkpt lat="45.58879" lon="6.6265">
        <ele>2051.87</ele>
        <time>2016-02-07T09:09:51.000Z</time>
      </trkpt>
      <trkpt lat="45.58868" lon="6.62633">
        <ele>2061.73</ele>
        <time>2016-02-07T09:10:31.000Z</time>
      </trkpt>
      <trkpt lat="45.58869" lon="6.62607">
        <ele>2074.73</ele>
        <time>2016-02-07T09:11:11.000Z</time>
      </trkpt>
      <trkpt lat="45.58865" lon="6.62581">
        <ele>2094.2</ele>
        <time>2016-02-07T09:12:07.000Z</time>
      </trkpt>
      <trkpt lat="45.58855" lon="6.62559">
        <ele>2100.37</ele>
        <time>2016-02-07T09:13:17.000Z</time>
      </trkpt>
      <trkpt lat="45.58851" lon="6.62534">
        <ele>2109.74</ele>
        <time>2016-02-07T09:14:21.000Z</time>
      </trkpt>
      <trkpt lat="45.58851" lon="6.62534">
        <ele>2109.74</ele>
        <time>2016-02-07T09:14:21.000Z</time>
      </trkpt>
      <trkpt lat="45.58853" lon="6.62523">
        <ele>2111.99</ele>
        <time>2016-02-07T09:14:31.000Z</time>
      </trkpt>
      <trkpt lat="45.58863" lon="6.62501">
        <ele>2124.25</ele>
        <time>2016-02-07T09:14:59.000Z</time>
      </trkpt>
      <trkpt lat="45.58877" lon="6.62484">
        <ele>2134.31</ele>
        <time>2016-02-07T09:15:43.000Z</time>
      </trkpt>
      <trkpt lat="45.58871" lon="6.6246">
        <ele>2127.76</ele>
        <time>2016-02-07T09:16:41.000Z</time>
      </trkpt>
      <trkpt lat="45.58854" lon="6.62448">
        <ele>2133.22</ele>
        <time>2016-02-07T09:17:21.000Z</time>
      </trkpt>
      <trkpt lat="45.58836" lon="6.62442">
        <ele>2140.18</ele>
        <time>2016-02-07T09:17:53.000Z</time>
      </trkpt>
      <trkpt lat="45.58836" lon="6.62442">
        <ele>2140.18</ele>
        <time>2016-02-07T09:17:53.000Z</time>
      </trkpt>
      <trkpt lat="45.58838" lon="6.62433">
        <ele>2153.24</ele>
        <time>2016-02-07T09:18:31.000Z</time>
      </trkpt>
      <trkpt lat="45.58826" lon="6.62413">
        <ele>2155.92</ele>
        <time>2016-02-07T09:20:13.000Z</time>
      </trkpt>
      <trkpt lat="45.58809" lon="6.62412">
        <ele>2156.43</ele>
        <time>2016-02-07T09:20:49.000Z</time>
      </trkpt>
      <trkpt lat="45.58809" lon="6.62412">
        <ele>2156.43</ele>
        <time>2016-02-07T09:20:49.000Z</time>
      </trkpt>
      <trkpt lat="45.58802" lon="6.62409">
        <ele>2149</ele>
        <time>2016-02-07T09:22:31.000Z</time>
      </trkpt>
      <trkpt lat="45.58789" lon="6.62389">
        <ele>2159.28</ele>
        <time>2016-02-07T09:24:59.000Z</time>
      </trkpt>
      <trkpt lat="45.5877" lon="6.62385">
        <ele>2159.15</ele>
        <time>2016-02-07T09:25:49.000Z</time>
      </trkpt>
      <trkpt lat="45.58752" lon="6.62378">
        <ele>2157.49</ele>
        <time>2016-02-07T09:26:23.000Z</time>
      </trkpt>
      <trkpt lat="45.58752" lon="6.62378">
        <ele>2157.49</ele>
        <time>2016-02-07T09:26:23.000Z</time>
      </trkpt>
      <trkpt lat="45.58748" lon="6.62376">
        <ele>2155.03</ele>
        <time>2016-02-07T09:26:31.000Z</time>
      </trkpt>
      <trkpt lat="45.58729" lon="6.62374">
        <ele>2161.76</ele>
        <time>2016-02-07T09:27:05.000Z</time>
      </trkpt>
      <trkpt lat="45.58711" lon="6.62376">
        <ele>2162.63</ele>
        <time>2016-02-07T09:27:41.000Z</time>
      </trkpt>
      <trkpt lat="45.58693" lon="6.62379">
        <ele>2172.96</ele>
        <time>2016-02-07T09:28:23.000Z</time>
      </trkpt>
      <trkpt lat="45.58675" lon="6.62367">
        <ele>2197.03</ele>
        <time>2016-02-07T09:29:59.000Z</time>
      </trkpt>
      <trkpt lat="45.58675" lon="6.62367">
        <ele>2197.03</ele>
        <time>2016-02-07T09:29:59.000Z</time>
      </trkpt>
      <trkpt lat="45.58662" lon="6.6237">
        <ele>2203.52</ele>
        <time>2016-02-07T09:30:31.000Z</time>
      </trkpt>
      <trkpt lat="45.58648" lon="6.62354">
        <ele>2230.4</ele>
        <time>2016-02-07T09:32:19.000Z</time>
      </trkpt>
      <trkpt lat="45.58648" lon="6.62328">
        <ele>2235.87</ele>
        <time>2016-02-07T09:33:05.000Z</time>
      </trkpt>
      <trkpt lat="45.58648" lon="6.62328">
        <ele>2235.87</ele>
        <time>2016-02-07T09:33:05.000Z</time>
      </trkpt>
      <trkpt lat="45.58636" lon="6.62333">
        <ele>2241.87</ele>
        <time>2016-02-07T09:34:31.000Z</time>
      </trkpt>
      <trkpt lat="45.58623" lon="6.62316">
        <ele>2249.9</ele>
        <time>2016-02-07T09:36:41.000Z</time>
      </trkpt>
      <trkpt lat="45.58623" lon="6.62316">
        <ele>2249.9</ele>
        <time>2016-02-07T09:36:41.000Z</time>
      </trkpt>
      <trkpt lat="45.58612" lon="6.6232">
        <ele>2262.6</ele>
        <time>2016-02-07T09:38:31.000Z</time>
      </trkpt>
      <trkpt lat="45.5862" lon="6.62297">
        <ele>2279.65</ele>
        <time>2016-02-07T09:39:27.000Z</time>
      </trkpt>
      <trkpt lat="45.58602" lon="6.62297">
        <ele>2284.61</ele>
        <time>2016-02-07T09:41:29.000Z</time>
      </trkpt>
      <trkpt lat="45.58602" lon="6.62297">
        <ele>2284.61</ele>
        <time>2016-02-07T09:41:29.000Z</time>
      </trkpt>
      <trkpt lat="45.5859" lon="6.62313">
        <ele>2301.33</ele>
        <time>2016-02-07T09:42:31.000Z</time>
      </trkpt>
      <trkpt lat="45.58579" lon="6.62293">
        <ele>2305.74</ele>
        <time>2016-02-07T09:44:01.000Z</time>
      </trkpt>
      <trkpt lat="45.58562" lon="6.62306">
        <ele>2305.23</ele>
        <time>2016-02-07T09:44:39.000Z</time>
      </trkpt>
      <trkpt lat="45.58562" lon="6.62306">
        <ele>2305.23</ele>
        <time>2016-02-07T09:44:39.000Z</time>
      </trkpt>
      <trkpt lat="45.58558" lon="6.62323">
        <ele>2331.3</ele>
        <time>2016-02-07T09:46:31.000Z</time>
      </trkpt>
      <trkpt lat="45.58544" lon="6.62306">
        <ele>2336.74</ele>
        <time>2016-02-07T09:47:07.000Z</time>
      </trkpt>
      <trkpt lat="45.58535" lon="6.62329">
        <ele>2332.24</ele>
        <time>2016-02-07T09:48:33.000Z</time>
      </trkpt>
      <trkpt lat="45.58524" lon="6.62309">
        <ele>2357.05</ele>
        <time>2016-02-07T09:50:05.000Z</time>
      </trkpt>
      <trkpt lat="45.58524" lon="6.62309">
        <ele>2357.05</ele>
        <time>2016-02-07T09:50:05.000Z</time>
      </trkpt>
      <trkpt lat="45.58517" lon="6.62315">
        <ele>2359.34</ele>
        <time>2016-02-07T09:50:31.000Z</time>
      </trkpt>
      <trkpt lat="45.58517" lon="6.62315">
        <ele>2359.34</ele>
        <time>2016-02-07T09:50:31.000Z</time>
      </trkpt>
      <trkpt lat="45.58511" lon="6.62317">
        <ele>2365</ele>
        <time>2016-02-07T09:54:31.000Z</time>
      </trkpt>
      <trkpt lat="45.58511" lon="6.62317">
        <ele>2365</ele>
        <time>2016-02-07T09:54:31.000Z</time>
      </trkpt>
      <trkpt lat="45.58509" lon="6.62316">
        <ele>2363</ele>
        <time>2016-02-07T09:58:31.000Z</time>
      </trkpt>
      <trkpt lat="45.58509" lon="6.62316">
        <ele>2363</ele>
        <time>2016-02-07T09:58:31.000Z</time>
      </trkpt>
      <trkpt lat="45.58511" lon="6.62316">
        <ele>2365</ele>
        <time>2016-02-07T10:02:31.000Z</time>
      </trkpt>
      <trkpt lat="45.58511" lon="6.62316">
        <ele>2365</ele>
        <time>2016-02-07T10:02:31.000Z</time>
      </trkpt>
      <trkpt lat="45.5851" lon="6.62309">
        <ele>2365.91</ele>
        <time>2016-02-07T10:06:31.000Z</time>
      </trkpt>
      <trkpt lat="45.5851" lon="6.62309">
        <ele>2365.91</ele>
        <time>2016-02-07T10:06:31.000Z</time>
      </trkpt>
      <trkpt lat="45.58511" lon="6.6231">
        <ele>2366</ele>
        <time>2016-02-07T10:10:31.000Z</time>
      </trkpt>
      <trkpt lat="45.58511" lon="6.6231">
        <ele>2366</ele>
        <time>2016-02-07T10:10:31.000Z</time>
      </trkpt>
      <trkpt lat="45.5851" lon="6.62305">
        <ele>2373.5</ele>
        <time>2016-02-07T10:14:31.000Z</time>
      </trkpt>
      <trkpt lat="45.5851" lon="6.62305">
        <ele>2373.5</ele>
        <time>2016-02-07T10:14:31.000Z</time>
      </trkpt>
      <trkpt lat="45.58511" lon="6.62307">
        <ele>2369.05</ele>
        <time>2016-02-07T10:18:31.000Z</time>
      </trkpt>
      <trkpt lat="45.5853" lon="6.62308">
        <ele>2355.11</ele>
        <time>2016-02-07T10:22:11.000Z</time>
      </trkpt>
      <trkpt lat="45.5853" lon="6.62308">
        <ele>2355.11</ele>
        <time>2016-02-07T10:22:11.000Z</time>
      </trkpt>
      <trkpt lat="45.5853" lon="6.62303">
        <ele>2349.05</ele>
        <time>2016-02-07T10:22:31.000Z</time>
      </trkpt>
      <trkpt lat="45.58547" lon="6.62313">
        <ele>2341.65</ele>
        <time>2016-02-07T10:23:33.000Z</time>
      </trkpt>
      <trkpt lat="45.58569" lon="6.62319">
        <ele>2334.35</ele>
        <time>2016-02-07T10:23:41.000Z</time>
      </trkpt>
      <trkpt lat="45.58588" lon="6.62323">
        <ele>2324.32</ele>
        <time>2016-02-07T10:23:51.000Z</time>
      </trkpt>
      <trkpt lat="45.58606" lon="6.62338">
        <ele>2309.32</ele>
        <time>2016-02-07T10:24:01.000Z</time>
      </trkpt>
      <trkpt lat="45.58625" lon="6.62345">
        <ele>2294.71</ele>
        <time>2016-02-07T10:24:09.000Z</time>
      </trkpt>
      <trkpt lat="45.58643" lon="6.62353">
        <ele>2265.31</ele>
        <time>2016-02-07T10:24:27.000Z</time>
      </trkpt>
      <trkpt lat="45.58661" lon="6.62366">
        <ele>2245.39</ele>
        <time>2016-02-07T10:24:47.000Z</time>
      </trkpt>
      <trkpt lat="45.58684" lon="6.62364">
        <ele>2239.09</ele>
        <time>2016-02-07T10:24:55.000Z</time>
      </trkpt>
      <trkpt lat="45.58698" lon="6.62384">
        <ele>2220.81</ele>
        <time>2016-02-07T10:25:15.000Z</time>
      </trkpt>
      <trkpt lat="45.58719" lon="6.62384">
        <ele>2210.65</ele>
        <time>2016-02-07T10:25:27.000Z</time>
      </trkpt>
      <trkpt lat="45.58719" lon="6.62384">
        <ele>2210.65</ele>
        <time>2016-02-07T10:25:27.000Z</time>
      </trkpt>
      <trkpt lat="45.58727" lon="6.62389">
        <ele>2210.01</ele>
        <time>2016-02-07T10:26:31.000Z</time>
      </trkpt>
      <trkpt lat="45.58727" lon="6.62389">
        <ele>2210.01</ele>
        <time>2016-02-07T10:26:31.000Z</time>
      </trkpt>
      <trkpt lat="45.58728" lon="6.6239">
        <ele>2210</ele>
        <time>2016-02-07T10:30:31.000Z</time>
      </trkpt>
      <trkpt lat="45.58711" lon="6.62413">
        <ele>2206.25</ele>
        <time>2016-02-07T10:32:13.000Z</time>
      </trkpt>
      <trkpt lat="45.58698" lon="6.62437">
        <ele>2199.78</ele>
        <time>2016-02-07T10:32:19.000Z</time>
      </trkpt>
      <trkpt lat="45.58693" lon="6.62468">
        <ele>2184.62</ele>
        <time>2016-02-07T10:32:29.000Z</time>
      </trkpt>
      <trkpt lat="45.58686" lon="6.62495">
        <ele>2179.65</ele>
        <time>2016-02-07T10:32:33.000Z</time>
      </trkpt>
      <trkpt lat="45.58705" lon="6.62511">
        <ele>2175.41</ele>
        <time>2016-02-07T10:32:37.000Z</time>
      </trkpt>
      <trkpt lat="45.58724" lon="6.62544">
        <ele>2168.55</ele>
        <time>2016-02-07T10:32:43.000Z</time>
      </trkpt>
      <trkpt lat="45.5873" lon="6.62572">
        <ele>2164.89</ele>
        <time>2016-02-07T10:32:47.000Z</time>
      </trkpt>
      <trkpt lat="45.58728" lon="6.62607">
        <ele>2156.74</ele>
        <time>2016-02-07T10:32:53.000Z</time>
      </trkpt>
      <trkpt lat="45.58751" lon="6.62613">
        <ele>2152.93</ele>
        <time>2016-02-07T10:32:57.000Z</time>
      </trkpt>
      <trkpt lat="45.58771" lon="6.62623">
        <ele>2148.48</ele>
        <time>2016-02-07T10:33:01.000Z</time>
      </trkpt>
      <trkpt lat="45.58791" lon="6.62635">
        <ele>2138.12</ele>
        <time>2016-02-07T10:33:05.000Z</time>
      </trkpt>
      <trkpt lat="45.58813" lon="6.6265">
        <ele>2129.53</ele>
        <time>2016-02-07T10:33:09.000Z</time>
      </trkpt>
      <trkpt lat="45.58813" lon="6.6265">
        <ele>2129.53</ele>
        <time>2016-02-07T10:33:09.000Z</time>
      </trkpt>
      <trkpt lat="45.58813" lon="6.62657">
        <ele>2105.01</ele>
        <time>2016-02-07T10:34:31.000Z</time>
      </trkpt>
      <trkpt lat="45.58828" lon="6.62696">
        <ele>2092.63</ele>
        <time>2016-02-07T10:37:47.000Z</time>
      </trkpt>
      <trkpt lat="45.58846" lon="6.62736">
        <ele>2087.41</ele>
        <time>2016-02-07T10:37:51.000Z</time>
      </trkpt>
      <trkpt lat="45.58873" lon="6.62765">
        <ele>2078.35</ele>
        <time>2016-02-07T10:37:55.000Z</time>
      </trkpt>
      <trkpt lat="45.58889" lon="6.62787">
        <ele>2071.09</ele>
        <time>2016-02-07T10:37:59.000Z</time>
      </trkpt>
      <trkpt lat="45.58903" lon="6.6282">
        <ele>2061.26</ele>
        <time>2016-02-07T10:38:05.000Z</time>
      </trkpt>
      <trkpt lat="45.58913" lon="6.62851">
        <ele>2055.57</ele>
        <time>2016-02-07T10:38:09.000Z</time>
      </trkpt>
      <trkpt lat="45.5892" lon="6.62884">
        <ele>2050.39</ele>
        <time>2016-02-07T10:38:13.000Z</time>
      </trkpt>
      <trkpt lat="45.58929" lon="6.62916">
        <ele>2043.8</ele>
        <time>2016-02-07T10:38:19.000Z</time>
      </trkpt>
      <trkpt lat="45.58929" lon="6.62916">
        <ele>2043.8</ele>
        <time>2016-02-07T10:38:19.000Z</time>
      </trkpt>
      <trkpt lat="45.58934" lon="6.62926">
        <ele>2037.25</ele>
        <time>2016-02-07T10:38:31.000Z</time>
      </trkpt>
      <trkpt lat="45.58943" lon="6.62949">
        <ele>2035.48</ele>
        <time>2016-02-07T10:39:05.000Z</time>
      </trkpt>
      <trkpt lat="45.58932" lon="6.62971">
        <ele>2029.94</ele>
        <time>2016-02-07T10:39:37.000Z</time>
      </trkpt>
      <trkpt lat="45.5894" lon="6.62997">
        <ele>2024.87</ele>
        <time>2016-02-07T10:39:43.000Z</time>
      </trkpt>
      <trkpt lat="45.5894" lon="6.6304">
        <ele>2020.73</ele>
        <time>2016-02-07T10:39:49.000Z</time>
      </trkpt>
      <trkpt lat="45.58932" lon="6.63068">
        <ele>2016.93</ele>
        <time>2016-02-07T10:39:53.000Z</time>
      </trkpt>
      <trkpt lat="45.58927" lon="6.631">
        <ele>2010.12</ele>
        <time>2016-02-07T10:39:59.000Z</time>
      </trkpt>
      <trkpt lat="45.58933" lon="6.63131">
        <ele>2002.64</ele>
        <time>2016-02-07T10:40:05.000Z</time>
      </trkpt>
      <trkpt lat="45.58936" lon="6.63158">
        <ele>2000.08</ele>
        <time>2016-02-07T10:40:11.000Z</time>
      </trkpt>
      <trkpt lat="45.58945" lon="6.63181">
        <ele>1991.99</ele>
        <time>2016-02-07T10:40:47.000Z</time>
      </trkpt>
      <trkpt lat="45.58948" lon="6.63219">
        <ele>1988.5</ele>
        <time>2016-02-07T10:40:51.000Z</time>
      </trkpt>
      <trkpt lat="45.58944" lon="6.63251">
        <ele>1982.12</ele>
        <time>2016-02-07T10:40:55.000Z</time>
      </trkpt>
      <trkpt lat="45.58948" lon="6.63286">
        <ele>1974.28</ele>
        <time>2016-02-07T10:40:59.000Z</time>
      </trkpt>
      <trkpt lat="45.5895" lon="6.63315">
        <ele>1968.32</ele>
        <time>2016-02-07T10:41:03.000Z</time>
      </trkpt>
      <trkpt lat="45.58947" lon="6.63342">
        <ele>1961.33</ele>
        <time>2016-02-07T10:41:07.000Z</time>
      </trkpt>
      <trkpt lat="45.58934" lon="6.63366">
        <ele>1955.08</ele>
        <time>2016-02-07T10:41:11.000Z</time>
      </trkpt>
      <trkpt lat="45.5893" lon="6.63398">
        <ele>1947.88</ele>
        <time>2016-02-07T10:41:19.000Z</time>
      </trkpt>
      <trkpt lat="45.5893" lon="6.63398">
        <ele>1947.88</ele>
        <time>2016-02-07T10:41:19.000Z</time>
      </trkpt>
      <trkpt lat="45.58932" lon="6.63404">
        <ele>1945.56</ele>
        <time>2016-02-07T10:42:31.000Z</time>
      </trkpt>
      <trkpt lat="45.58941" lon="6.63427">
        <ele>1940.2</ele>
        <time>2016-02-07T10:42:37.000Z</time>
      </trkpt>
      <trkpt lat="45.58941" lon="6.63458">
        <ele>1934.55</ele>
        <time>2016-02-07T10:42:41.000Z</time>
      </trkpt>
      <trkpt lat="45.58953" lon="6.63488">
        <ele>1930.89</ele>
        <time>2016-02-07T10:42:45.000Z</time>
      </trkpt>
      <trkpt lat="45.58968" lon="6.6351">
        <ele>1925.97</ele>
        <time>2016-02-07T10:42:49.000Z</time>
      </trkpt>
      <trkpt lat="45.58978" lon="6.63538">
        <ele>1920.49</ele>
        <time>2016-02-07T10:42:53.000Z</time>
      </trkpt>
      <trkpt lat="45.58978" lon="6.63567">
        <ele>1915.62</ele>
        <time>2016-02-07T10:42:57.000Z</time>
      </trkpt>
      <trkpt lat="45.58984" lon="6.63598">
        <ele>1909.08</ele>
        <time>2016-02-07T10:43:03.000Z</time>
      </trkpt>
      <trkpt lat="45.58998" lon="6.63615">
        <ele>1898.62</ele>
        <time>2016-02-07T10:44:29.000Z</time>
      </trkpt>
      <trkpt lat="45.59018" lon="6.63636">
        <ele>1890.08</ele>
        <time>2016-02-07T10:44:35.000Z</time>
      </trkpt>
      <trkpt lat="45.59023" lon="6.63669">
        <ele>1883.32</ele>
        <time>2016-02-07T10:44:43.000Z</time>
      </trkpt>
      <trkpt lat="45.59027" lon="6.63707">
        <ele>1874.91</ele>
        <time>2016-02-07T10:44:49.000Z</time>
      </trkpt>
      <trkpt lat="45.59027" lon="6.63739">
        <ele>1869.98</ele>
        <time>2016-02-07T10:44:53.000Z</time>
      </trkpt>
      <trkpt lat="45.59026" lon="6.63772">
        <ele>1865.99</ele>
        <time>2016-02-07T10:44:57.000Z</time>
      </trkpt>
      <trkpt lat="45.59037" lon="6.63793">
        <ele>1862.75</ele>
        <time>2016-02-07T10:45:01.000Z</time>
      </trkpt>
      <trkpt lat="45.59039" lon="6.63828">
        <ele>1857.34</ele>
        <time>2016-02-07T10:45:07.000Z</time>
      </trkpt>
      <trkpt lat="45.59039" lon="6.6386">
        <ele>1852.17</ele>
        <time>2016-02-07T10:45:13.000Z</time>
      </trkpt>
      <trkpt lat="45.59032" lon="6.63885">
        <ele>1848.64</ele>
        <time>2016-02-07T10:45:35.000Z</time>
      </trkpt>
      <trkpt lat="45.59021" lon="6.63913">
        <ele>1847.11</ele>
        <time>2016-02-07T10:46:03.000Z</time>
      </trkpt>
      <trkpt lat="45.59011" lon="6.63935">
        <ele>1844.63</ele>
        <time>2016-02-07T10:46:11.000Z</time>
      </trkpt>
      <trkpt lat="45.59011" lon="6.63935">
        <ele>1844.63</ele>
        <time>2016-02-07T10:46:11.000Z</time>
      </trkpt>
      <trkpt lat="45.59011" lon="6.63958">
        <ele>1835.86</ele>
        <time>2016-02-07T10:46:31.000Z</time>
      </trkpt>
      <trkpt lat="45.59013" lon="6.63984">
        <ele>1832.5</ele>
        <time>2016-02-07T10:46:43.000Z</time>
      </trkpt>
      <trkpt lat="45.59017" lon="6.64009">
        <ele>1823.26</ele>
        <time>2016-02-07T10:47:01.000Z</time>
      </trkpt>
      <trkpt lat="45.59018" lon="6.64038">
        <ele>1818.19</ele>
        <time>2016-02-07T10:48:33.000Z</time>
      </trkpt>
      <trkpt lat="45.59025" lon="6.64064">
        <ele>1818.1</ele>
        <time>2016-02-07T10:48:43.000Z</time>
      </trkpt>
      <trkpt lat="45.59032" lon="6.64088">
        <ele>1818.91</ele>
        <time>2016-02-07T10:49:57.000Z</time>
      </trkpt>
      <trkpt lat="45.59021" lon="6.64111">
        <ele>1818.25</ele>
        <time>2016-02-07T10:50:09.000Z</time>
      </trkpt>
      <trkpt lat="45.59006" lon="6.64127">
        <ele>1818.18</ele>
        <time>2016-02-07T10:50:27.000Z</time>
      </trkpt>
      <trkpt lat="45.59006" lon="6.64127">
        <ele>1818.18</ele>
        <time>2016-02-07T10:50:27.000Z</time>
      </trkpt>
      <trkpt lat="45.59007" lon="6.64131">
        <ele>1813.29</ele>
        <time>2016-02-07T10:50:31.000Z</time>
      </trkpt>
      <trkpt lat="45.59002" lon="6.64158">
        <ele>1806.24</ele>
        <time>2016-02-07T10:50:57.000Z</time>
      </trkpt>
      <trkpt lat="45.59003" lon="6.64188">
        <ele>1801.06</ele>
        <time>2016-02-07T10:52:49.000Z</time>
      </trkpt>
      <trkpt lat="45.59003" lon="6.64214">
        <ele>1798.16</ele>
        <time>2016-02-07T10:53:01.000Z</time>
      </trkpt>
      <trkpt lat="45.59003" lon="6.6424">
        <ele>1786.95</ele>
        <time>2016-02-07T10:53:09.000Z</time>
      </trkpt>
      <trkpt lat="45.59019" lon="6.6426">
        <ele>1774.62</ele>
        <time>2016-02-07T10:53:15.000Z</time>
      </trkpt>
      <trkpt lat="45.59015" lon="6.64286">
        <ele>1774.97</ele>
        <time>2016-02-07T10:53:41.000Z</time>
      </trkpt>
      <trkpt lat="45.59015" lon="6.64286">
        <ele>1774.97</ele>
        <time>2016-02-07T10:53:41.000Z</time>
      </trkpt>
      <trkpt lat="45.59011" lon="6.64299">
        <ele>1781.99</ele>
        <time>2016-02-07T10:54:31.000Z</time>
      </trkpt>
      <trkpt lat="45.58992" lon="6.64299">
        <ele>1784.88</ele>
        <time>2016-02-07T10:55:39.000Z</time>
      </trkpt>
      <trkpt lat="45.58975" lon="6.64307">
        <ele>1784.84</ele>
        <time>2016-02-07T10:56:31.000Z</time>
      </trkpt>
      <trkpt lat="45.58957" lon="6.64314">
        <ele>1785.73</ele>
        <time>2016-02-07T10:57:01.000Z</time>
      </trkpt>
      <trkpt lat="45.58939" lon="6.64318">
        <ele>1785.76</ele>
        <time>2016-02-07T10:57:43.000Z</time>
      </trkpt>
      <trkpt lat="45.58919" lon="6.64319">
        <ele>1779.46</ele>
        <time>2016-02-07T10:58:13.000Z</time>
      </trkpt>
      <trkpt lat="45.58919" lon="6.64319">
        <ele>1779.46</ele>
        <time>2016-02-07T10:58:13.000Z</time>
      </trkpt>
      <trkpt lat="45.58907" lon="6.64323">
        <ele>1780.68</ele>
        <time>2016-02-07T10:58:31.000Z</time>
      </trkpt>
      <trkpt lat="45.58907" lon="6.64323">
        <ele>1780.68</ele>
        <time>2016-02-07T10:58:31.000Z</time>
      </trkpt>
      <trkpt lat="45.58897" lon="6.64322">
        <ele>1786.99</ele>
        <time>2016-02-07T11:02:31.000Z</time>
      </trkpt>
      <trkpt lat="45.58879" lon="6.64341">
        <ele>1780.99</ele>
        <time>2016-02-07T11:05:25.000Z</time>
      </trkpt>
      <trkpt lat="45.58856" lon="6.64342">
        <ele>1777.75</ele>
        <time>2016-02-07T11:05:29.000Z</time>
      </trkpt>
      <trkpt lat="45.58832" lon="6.64344">
        <ele>1774.69</ele>
        <time>2016-02-07T11:05:33.000Z</time>
      </trkpt>
      <trkpt lat="45.5881" lon="6.64346">
        <ele>1772.67</ele>
        <time>2016-02-07T11:05:37.000Z</time>
      </trkpt>
      <trkpt lat="45.58786" lon="6.64353">
        <ele>1770.42</ele>
        <time>2016-02-07T11:05:41.000Z</time>
      </trkpt>
      <trkpt lat="45.58767" lon="6.64361">
        <ele>1768.6</ele>
        <time>2016-02-07T11:05:45.000Z</time>
      </trkpt>
      <trkpt lat="45.58749" lon="6.64371">
        <ele>1768.4</ele>
        <time>2016-02-07T11:05:49.000Z</time>
      </trkpt>
      <trkpt lat="45.58728" lon="6.6438">
        <ele>1767.6</ele>
        <time>2016-02-07T11:05:53.000Z</time>
      </trkpt>
      <trkpt lat="45.58704" lon="6.64397">
        <ele>1767.15</ele>
        <time>2016-02-07T11:05:57.000Z</time>
      </trkpt>
      <trkpt lat="45.58681" lon="6.64412">
        <ele>1767.04</ele>
        <time>2016-02-07T11:06:01.000Z</time>
      </trkpt>
      <trkpt lat="45.58656" lon="6.64426">
        <ele>1765.51</ele>
        <time>2016-02-07T11:06:05.000Z</time>
      </trkpt>
      <trkpt lat="45.58633" lon="6.64432">
        <ele>1761.13</ele>
        <time>2016-02-07T11:06:09.000Z</time>
      </trkpt>
      <trkpt lat="45.58652" lon="6.64433">
        <ele>1750.97</ele>
        <time>2016-02-07T11:06:19.000Z</time>
      </trkpt>
      <trkpt lat="45.58681" lon="6.64428">
        <ele>1746.12</ele>
        <time>2016-02-07T11:06:25.000Z</time>
      </trkpt>
      <trkpt lat="45.58681" lon="6.64428">
        <ele>1746.12</ele>
        <time>2016-02-07T11:06:25.000Z</time>
      </trkpt>
      <trkpt lat="45.58684" lon="6.64436">
        <ele>1740.89</ele>
        <time>2016-02-07T11:06:31.000Z</time>
      </trkpt>
      <trkpt lat="45.5866" lon="6.64445">
        <ele>1738.57</ele>
        <time>2016-02-07T11:06:47.000Z</time>
      </trkpt>
      <trkpt lat="45.58641" lon="6.64459">
        <ele>1737.39</ele>
        <time>2016-02-07T11:06:51.000Z</time>
      </trkpt>
      <trkpt lat="45.58619" lon="6.64485">
        <ele>1735.67</ele>
        <time>2016-02-07T11:06:57.000Z</time>
      </trkpt>
      <trkpt lat="45.58606" lon="6.64511">
        <ele>1734.67</ele>
        <time>2016-02-07T11:07:01.000Z</time>
      </trkpt>
      <trkpt lat="45.58592" lon="6.64536">
        <ele>1732.92</ele>
        <time>2016-02-07T11:07:05.000Z</time>
      </trkpt>
      <trkpt lat="45.58575" lon="6.64562">
        <ele>1729.73</ele>
        <time>2016-02-07T11:07:09.000Z</time>
      </trkpt>
      <trkpt lat="45.58554" lon="6.64579">
        <ele>1725.93</ele>
        <time>2016-02-07T11:07:13.000Z</time>
      </trkpt>
      <trkpt lat="45.58539" lon="6.64596">
        <ele>1720.23</ele>
        <time>2016-02-07T11:07:17.000Z</time>
      </trkpt>
      <trkpt lat="45.58522" lon="6.64616">
        <ele>1716.06</ele>
        <time>2016-02-07T11:07:21.000Z</time>
      </trkpt>
      <trkpt lat="45.58504" lon="6.64629">
        <ele>1712.51</ele>
        <time>2016-02-07T11:07:25.000Z</time>
      </trkpt>
      <trkpt lat="45.58486" lon="6.64637">
        <ele>1706.63</ele>
        <time>2016-02-07T11:07:29.000Z</time>
      </trkpt>
      <trkpt lat="45.5846" lon="6.64643">
        <ele>1701.66</ele>
        <time>2016-02-07T11:07:33.000Z</time>
      </trkpt>
      <trkpt lat="45.58424" lon="6.64649">
        <ele>1695.66</ele>
        <time>2016-02-07T11:07:37.000Z</time>
      </trkpt>
      <trkpt lat="45.58403" lon="6.6466">
        <ele>1692.33</ele>
        <time>2016-02-07T11:07:39.000Z</time>
      </trkpt>
      <trkpt lat="45.58382" lon="6.64663">
        <ele>1690.17</ele>
        <time>2016-02-07T11:07:41.000Z</time>
      </trkpt>
      <trkpt lat="45.58364" lon="6.64661">
        <ele>1689</ele>
        <time>2016-02-07T11:08:03.000Z</time>
      </trkpt>
      <trkpt lat="45.58345" lon="6.64664">
        <ele>1689.11</ele>
        <time>2016-02-07T11:10:07.000Z</time>
      </trkpt>
      <trkpt lat="45.5832" lon="6.64657">
        <ele>1683.94</ele>
        <time>2016-02-07T11:10:15.000Z</time>
      </trkpt>
      <trkpt lat="45.583" lon="6.64647">
        <ele>1681.31</ele>
        <time>2016-02-07T11:10:25.000Z</time>
      </trkpt>
      <trkpt lat="45.583" lon="6.64647">
        <ele>1681.31</ele>
        <time>2016-02-07T11:10:25.000Z</time>
      </trkpt>
      <trkpt lat="45.58281" lon="6.64636">
        <ele>1678.91</ele>
        <time>2016-02-07T11:10:31.000Z</time>
      </trkpt>
      <trkpt lat="45.58258" lon="6.64644">
        <ele>1665.68</ele>
        <time>2016-02-07T11:10:41.000Z</time>
      </trkpt>
      <trkpt lat="45.58236" lon="6.64641">
        <ele>1659.4</ele>
        <time>2016-02-07T11:10:51.000Z</time>
      </trkpt>
      <trkpt lat="45.58215" lon="6.64639">
        <ele>1654.8</ele>
        <time>2016-02-07T11:10:57.000Z</time>
      </trkpt>
      <trkpt lat="45.58193" lon="6.64641">
        <ele>1650.72</ele>
        <time>2016-02-07T11:11:03.000Z</time>
      </trkpt>
      <trkpt lat="45.58179" lon="6.64658">
        <ele>1640.92</ele>
        <time>2016-02-07T11:11:25.000Z</time>
      </trkpt>
      <trkpt lat="45.58157" lon="6.64658">
        <ele>1635.99</ele>
        <time>2016-02-07T11:11:31.000Z</time>
      </trkpt>
      <trkpt lat="45.58149" lon="6.64684">
        <ele>1631.12</ele>
        <time>2016-02-07T11:11:37.000Z</time>
      </trkpt>
      <trkpt lat="45.58145" lon="6.64712">
        <ele>1619.75</ele>
        <time>2016-02-07T11:11:49.000Z</time>
      </trkpt>
      <trkpt lat="45.58128" lon="6.64702">
        <ele>1614.72</ele>
        <time>2016-02-07T11:11:55.000Z</time>
      </trkpt>
      <trkpt lat="45.58112" lon="6.64717">
        <ele>1607.68</ele>
        <time>2016-02-07T11:12:07.000Z</time>
      </trkpt>
      <trkpt lat="45.58094" lon="6.64705">
        <ele>1600.48</ele>
        <time>2016-02-07T11:12:15.000Z</time>
      </trkpt>
      <trkpt lat="45.58078" lon="6.6472">
        <ele>1589.45</ele>
        <time>2016-02-07T11:12:25.000Z</time>
      </trkpt>
      <trkpt lat="45.58062" lon="6.64744">
        <ele>1585.04</ele>
        <time>2016-02-07T11:13:35.000Z</time>
      </trkpt>
      <trkpt lat="45.58039" lon="6.64738">
        <ele>1579</ele>
        <time>2016-02-07T11:13:41.000Z</time>
      </trkpt>
      <trkpt lat="45.58026" lon="6.64768">
        <ele>1568.31</ele>
        <time>2016-02-07T11:13:49.000Z</time>
      </trkpt>
      <trkpt lat="45.5801" lon="6.64755">
        <ele>1564.16</ele>
        <time>2016-02-07T11:13:55.000Z</time>
      </trkpt>
      <trkpt lat="45.57995" lon="6.64724">
        <ele>1561.9</ele>
        <time>2016-02-07T11:14:01.000Z</time>
      </trkpt>
      <trkpt lat="45.57981" lon="6.64709">
        <ele>1559.97</ele>
        <time>2016-02-07T11:14:05.000Z</time>
      </trkpt>
      <trkpt lat="45.57963" lon="6.64699">
        <ele>1555.99</ele>
        <time>2016-02-07T11:14:09.000Z</time>
      </trkpt>
      <trkpt lat="45.57956" lon="6.64726">
        <ele>1549.44</ele>
        <time>2016-02-07T11:14:17.000Z</time>
      </trkpt>
      <trkpt lat="45.57969" lon="6.64756">
        <ele>1545.18</ele>
        <time>2016-02-07T11:14:23.000Z</time>
      </trkpt>
      <trkpt lat="45.57981" lon="6.64785">
        <ele>1542.52</ele>
        <time>2016-02-07T11:14:29.000Z</time>
      </trkpt>
      <trkpt lat="45.57981" lon="6.64785">
        <ele>1542.52</ele>
        <time>2016-02-07T11:14:29.000Z</time>
      </trkpt>
      <trkpt lat="45.57985" lon="6.64796">
        <ele>1542.26</ele>
        <time>2016-02-07T11:14:31.000Z</time>
      </trkpt>
      <trkpt lat="45.57972" lon="6.64815">
        <ele>1536.76</ele>
        <time>2016-02-07T11:14:41.000Z</time>
      </trkpt>
      <trkpt lat="45.57952" lon="6.6482">
        <ele>1533.44</ele>
        <time>2016-02-07T11:14:45.000Z</time>
      </trkpt>
      <trkpt lat="45.57933" lon="6.64823">
        <ele>1527.48</ele>
        <time>2016-02-07T11:15:03.000Z</time>
      </trkpt>
      <trkpt lat="45.57933" lon="6.64823">
        <ele>1527.48</ele>
        <time>2016-02-07T11:15:03.000Z</time>
      </trkpt>
      <trkpt lat="45.57922" lon="6.64836">
        <ele>1516.5</ele>
        <time>2016-02-07T11:18:31.000Z</time>
      </trkpt>
      <trkpt lat="45.57926" lon="6.64863">
        <ele>1511.59</ele>
        <time>2016-02-07T11:19:11.000Z</time>
      </trkpt>
      <trkpt lat="45.57912" lon="6.64884">
        <ele>1504.07</ele>
        <time>2016-02-07T11:19:17.000Z</time>
      </trkpt>
      <trkpt lat="45.57904" lon="6.64915">
        <ele>1496.82</ele>
        <time>2016-02-07T11:19:25.000Z</time>
      </trkpt>
      <trkpt lat="45.57902" lon="6.64943">
        <ele>1492.45</ele>
        <time>2016-02-07T11:19:29.000Z</time>
      </trkpt>
      <trkpt lat="45.57886" lon="6.64972">
        <ele>1485.18</ele>
        <time>2016-02-07T11:19:35.000Z</time>
      </trkpt>
      <trkpt lat="45.57873" lon="6.6499">
        <ele>1477.77</ele>
        <time>2016-02-07T11:19:41.000Z</time>
      </trkpt>
      <trkpt lat="45.57868" lon="6.65016">
        <ele>1467.22</ele>
        <time>2016-02-07T11:19:47.000Z</time>
      </trkpt>
      <trkpt lat="45.57877" lon="6.65042">
        <ele>1460.31</ele>
        <time>2016-02-07T11:19:51.000Z</time>
      </trkpt>
      <trkpt lat="45.57871" lon="6.65069">
        <ele>1454.83</ele>
        <time>2016-02-07T11:19:55.000Z</time>
      </trkpt>
      <trkpt lat="45.57873" lon="6.651">
        <ele>1445.85</ele>
        <time>2016-02-07T11:20:01.000Z</time>
      </trkpt>
      <trkpt lat="45.57866" lon="6.65127">
        <ele>1436.36</ele>
        <time>2016-02-07T11:20:07.000Z</time>
      </trkpt>
      <trkpt lat="45.57851" lon="6.65161">
        <ele>1427.17</ele>
        <time>2016-02-07T11:20:13.000Z</time>
      </trkpt>
      <trkpt lat="45.5785" lon="6.6519">
        <ele>1420.77</ele>
        <time>2016-02-07T11:20:19.000Z</time>
      </trkpt>
      <trkpt lat="45.57835" lon="6.6521">
        <ele>1410.66</ele>
        <time>2016-02-07T11:20:33.000Z</time>
      </trkpt>
      <trkpt lat="45.57814" lon="6.65215">
        <ele>1403.14</ele>
        <time>2016-02-07T11:20:45.000Z</time>
      </trkpt>
      <trkpt lat="45.57814" lon="6.65215">
        <ele>1403.14</ele>
        <time>2016-02-07T11:20:45.000Z</time>
      </trkpt>
      <trkpt lat="45.57812" lon="6.65223">
        <ele>1396.79</ele>
        <time>2016-02-07T11:22:31.000Z</time>
      </trkpt>
    </trkseg>
  </trk>
</gpx>